createdAt,value
2019-02-16T00:00:49.165Z,82.05
2019-02-16T00:03:18.559Z,82.91
2019-02-16T00:05:48.086Z,82.47
2019-02-16T00:08:17.362Z,83.37
2019-02-16T00:10:46.890Z,82.78
2019-02-16T00:13:16.176Z,83.42
2019-02-16T00:15:45.447Z,83.93
2019-02-16T00:18:33.705Z,83.77
2019-02-16T00:21:04.314Z,83.97
2019-02-16T00:23:33.993Z,84.17
2019-02-16T00:26:03.291Z,84.76
2019-02-16T00:28:32.590Z,83.97
2019-02-16T00:31:41.211Z,84.89
2019-02-16T00:34:22.610Z,84.94
2019-02-16T00:36:51.894Z,84.88
2019-02-16T00:39:21.284Z,84.98
2019-02-16T00:41:50.585Z,85.07
2019-02-16T00:44:20.055Z,84.78
2019-02-16T00:49:27.190Z,85.49
2019-02-16T00:54:31.429Z,85.63
2019-02-16T00:57:00.757Z,85.34
2019-02-16T00:59:30.157Z,86.03
2019-02-16T01:01:59.442Z,86.33
2019-02-16T01:04:28.822Z,85.84
2019-02-16T01:06:58.120Z,86.43
2019-02-16T01:09:27.525Z,86.30
2019-02-16T01:11:56.814Z,86.76
2019-02-16T01:14:26.395Z,86.57
2019-02-16T01:16:55.685Z,86.54
2019-02-16T01:19:25.329Z,86.72
2019-02-16T01:21:54.633Z,86.42
2019-02-16T01:24:24.028Z,86.83
2019-02-16T01:26:53.417Z,87.05
2019-02-16T01:29:22.857Z,87.47
2019-02-16T01:31:52.198Z,87.59
2019-02-16T01:34:21.470Z,87.30
2019-02-16T01:36:50.751Z,87.15
2019-02-16T01:39:20.238Z,86.96
2019-02-16T01:41:49.509Z,86.80
2019-02-16T01:44:19.020Z,86.87
2019-02-16T01:46:48.287Z,86.76
2019-02-16T01:49:17.836Z,86.91
2019-02-16T01:51:47.139Z,86.67
2019-02-16T01:54:35.467Z,86.79
2019-02-16T01:57:05.162Z,86.53
2019-02-16T01:59:34.466Z,86.23
2019-02-16T02:02:04.218Z,86.46
2019-02-16T02:07:08.177Z,85.55
2019-02-16T02:09:37.641Z,85.79
2019-02-16T02:12:07.002Z,85.55
2019-02-16T02:14:55.454Z,86.02
2019-02-16T02:17:25.269Z,85.81
2019-02-16T02:19:54.569Z,85.53
2019-02-16T02:22:24.098Z,85.43
2019-02-16T02:27:28.429Z,85.06
2019-02-16T02:29:58.069Z,85.38
2019-02-16T02:32:27.360Z,85.43
2019-02-16T02:34:57.027Z,85.81
2019-02-16T02:37:26.306Z,86.25
2019-02-16T02:39:55.647Z,85.92
2019-02-16T02:42:24.942Z,86.33
2019-02-16T02:44:54.332Z,86.37
2019-02-16T02:47:23.589Z,86.31
2019-02-16T02:49:53.299Z,86.75
2019-02-16T02:52:22.585Z,86.65
2019-02-16T02:54:52.125Z,86.46
2019-02-16T02:57:21.418Z,87.06
2019-02-16T02:59:51.098Z,86.84
2019-02-16T03:02:20.416Z,87.15
2019-02-16T03:04:49.863Z,87.25
2019-02-16T03:07:38.386Z,87.44
2019-02-16T03:10:07.789Z,87.69
2019-02-16T03:12:37.400Z,87.97
2019-02-16T03:15:07.191Z,88.02
2019-02-16T03:20:11.162Z,89.00
2019-02-16T03:23:18.457Z,89.35
2019-02-16T03:26:18.908Z,89.49
2019-02-16T03:29:26.246Z,89.53
2019-02-16T03:32:33.559Z,89.66
2019-02-16T03:35:15.099Z,89.87
2019-02-16T03:38:22.498Z,90.17
2019-02-16T03:41:11.290Z,90.39
2019-02-16T03:43:40.638Z,90.62
2019-02-16T03:46:10.330Z,90.77
2019-02-16T03:48:39.610Z,90.80
2019-02-16T03:51:09.215Z,90.80
2019-02-16T03:53:38.523Z,90.90
2019-02-16T03:56:08.197Z,90.55
2019-02-16T03:58:37.493Z,90.74
2019-02-16T04:01:07.292Z,90.36
2019-02-16T04:03:36.597Z,90.35
2019-02-16T04:06:06.333Z,90.17
2019-02-16T04:08:35.615Z,90.23
2019-02-16T04:11:05.325Z,90.27
2019-02-16T04:13:34.643Z,90.36
2019-02-16T04:16:04.231Z,90.42
2019-02-16T04:18:33.510Z,90.45
2019-02-16T04:21:03.313Z,90.47
2019-02-16T04:23:32.608Z,90.75
2019-02-16T04:26:07.187Z,90.94
2019-02-16T04:28:36.715Z,91.02
2019-02-16T04:31:06.031Z,91.01
2019-02-16T04:33:35.387Z,91.16
2019-02-16T04:36:04.740Z,91.44
2019-02-16T04:41:41.533Z,91.68
2019-02-16T04:44:11.334Z,91.69
2019-02-16T04:46:40.665Z,91.62
2019-02-16T04:49:10.269Z,91.80
2019-02-16T04:54:27.877Z,92.32
2019-02-16T04:56:57.183Z,92.28
2019-02-16T04:59:26.556Z,92.21
2019-02-16T05:01:56.064Z,92.64
2019-02-16T05:04:44.307Z,92.64
2019-02-16T05:07:13.640Z,92.68
2019-02-16T05:09:43.034Z,92.86
2019-02-16T05:12:12.338Z,93.08
2019-02-16T05:14:41.757Z,93.15
2019-02-16T05:17:11.052Z,93.24
2019-02-16T05:19:40.401Z,93.38
2019-02-16T05:22:09.681Z,93.69
2019-02-16T05:24:38.959Z,93.48
2019-02-16T05:27:08.259Z,94.19
2019-02-16T05:29:37.613Z,94.05
2019-02-16T05:32:06.913Z,94.46
2019-02-16T05:34:36.204Z,94.56
2019-02-16T05:37:05.499Z,94.75
2019-02-16T05:39:34.892Z,94.74
2019-02-16T05:42:04.230Z,94.48
2019-02-16T05:44:33.570Z,94.50
2019-02-16T05:47:02.878Z,94.75
2019-02-16T05:49:32.183Z,94.91
2019-02-16T05:52:01.539Z,94.60
2019-02-16T05:54:30.815Z,94.56
2019-02-16T05:57:00.362Z,95.01
2019-02-16T05:59:48.752Z,95.06
2019-02-16T06:02:18.096Z,95.18
2019-02-16T06:04:47.488Z,95.41
2019-02-16T06:07:16.804Z,95.18
2019-02-16T06:09:46.271Z,95.33
2019-02-16T06:12:15.574Z,95.25
2019-02-16T06:14:45.265Z,95.46
2019-02-16T06:17:14.556Z,95.48
2019-02-16T06:20:02.758Z,95.43
2019-02-16T06:22:32.307Z,95.77
2019-02-16T06:25:01.772Z,95.71
2019-02-16T06:27:50.156Z,95.72
2019-02-16T06:30:19.538Z,95.68
2019-02-16T06:33:07.839Z,95.68
2019-02-16T06:35:56.114Z,95.82
2019-02-16T06:38:25.424Z,95.65
2019-02-16T06:40:55.003Z,95.65
2019-02-16T06:43:24.305Z,95.69
2019-02-16T06:45:53.982Z,95.60
2019-02-16T06:48:23.270Z,95.39
2019-02-16T06:50:53.089Z,95.50
2019-02-16T06:53:22.372Z,95.47
2019-02-16T06:56:10.687Z,95.39
2019-02-16T06:58:40.177Z,95.36
2019-02-16T07:01:09.485Z,95.40
2019-02-16T07:03:38.907Z,95.35
2019-02-16T07:06:08.206Z,95.44
2019-02-16T07:08:37.686Z,95.20
2019-02-16T07:11:06.987Z,95.20
2019-02-16T07:13:36.311Z,95.21
2019-02-16T07:16:24.629Z,95.10
2019-02-16T07:18:59.271Z,95.10
2019-02-16T07:21:28.627Z,95.09
2019-02-16T07:23:57.933Z,95.17
2019-02-16T07:31:37.925Z,94.76
2019-02-16T07:34:07.252Z,94.67
2019-02-16T07:36:36.662Z,94.52
2019-02-16T07:39:25.110Z,94.23
2019-02-16T07:41:54.423Z,94.06
2019-02-16T07:44:42.752Z,93.92
2019-02-16T07:47:31.161Z,93.76
2019-02-16T07:50:38.485Z,93.64
2019-02-16T07:53:14.870Z,93.25
2019-02-16T07:56:03.262Z,93.08
2019-02-16T07:58:51.602Z,92.65
2019-02-16T08:01:48.815Z,92.23
2019-02-16T08:04:37.166Z,92.30
2019-02-16T08:07:25.508Z,92.16
2019-02-16T08:10:13.758Z,91.96
2019-02-16T08:13:01.978Z,91.59
2019-02-16T08:18:45.807Z,91.50
2019-02-16T08:21:22.772Z,90.99
2019-02-16T08:24:11.016Z,90.47
2019-02-16T08:26:59.283Z,90.10
2019-02-16T08:29:46.087Z,90.19
2019-02-16T08:32:34.407Z,89.68
2019-02-16T08:35:11.661Z,89.67
2019-02-16T08:37:48.515Z,89.48
2019-02-16T08:40:36.916Z,89.50
2019-02-16T08:43:17.660Z,88.76
2019-02-16T08:46:06.116Z,88.66
2019-02-16T08:48:41.060Z,88.27
2019-02-16T08:51:29.314Z,88.02
2019-02-16T08:54:08.901Z,87.84
2019-02-16T08:57:06.274Z,87.78
2019-02-16T08:59:53.256Z,87.48
2019-02-16T09:02:41.600Z,87.79
2019-02-16T09:05:30.062Z,87.75
2019-02-16T09:08:18.359Z,87.50
2019-02-16T09:11:06.774Z,87.01
2019-02-16T09:13:55.059Z,87.52
2019-02-16T09:16:43.319Z,87.36
2019-02-16T09:19:31.636Z,87.69
2019-02-16T09:22:19.886Z,87.74
2019-02-16T09:24:55.287Z,87.87
2019-02-16T09:27:41.982Z,87.37
2019-02-16T09:30:30.701Z,86.94
2019-02-16T09:35:59.872Z,86.98
2019-02-16T09:38:48.140Z,86.74
2019-02-16T09:41:36.375Z,86.64
2019-02-16T09:44:30.820Z,86.63
2019-02-16T09:47:19.052Z,86.44
2019-02-16T09:50:07.417Z,86.35
2019-02-16T09:52:44.985Z,86.00
2019-02-16T09:55:33.224Z,85.83
2019-02-16T09:58:25.300Z,85.86
2019-02-16T10:01:03.558Z,85.39
2019-02-16T10:03:39.873Z,85.57
2019-02-16T10:06:28.074Z,84.83
2019-02-16T10:09:02.330Z,84.23
2019-02-16T10:11:50.584Z,84.66
2019-02-16T10:14:28.683Z,84.90
2019-02-16T10:17:27.361Z,84.95
2019-02-16T10:20:18.067Z,84.26
2019-02-16T10:23:06.300Z,83.66
2019-02-16T10:25:55.022Z,84.07
2019-02-16T10:28:43.189Z,84.19
2019-02-16T10:31:31.409Z,83.37
2019-02-16T10:34:19.705Z,84.18
2019-02-16T10:37:08.020Z,83.74
2019-02-16T10:39:56.202Z,83.14
2019-02-16T10:42:44.441Z,82.42
2019-02-16T10:45:53.094Z,82.02
2019-02-16T10:48:38.687Z,82.28
2019-02-16T10:51:45.970Z,82.76
2019-02-16T10:54:34.414Z,82.76
2019-02-16T10:57:23.007Z,83.15
2019-02-16T11:00:11.211Z,82.57
2019-02-16T11:02:59.557Z,83.07
2019-02-16T11:05:38.448Z,83.17
2019-02-16T11:08:26.897Z,82.57
2019-02-16T11:11:01.916Z,82.50
2019-02-16T11:13:50.397Z,83.48
2019-02-16T11:16:32.407Z,82.93
2019-02-16T11:19:20.873Z,82.83
2019-02-16T11:25:08.282Z,83.37
2019-02-16T11:28:15.690Z,83.28
2019-02-16T11:31:22.860Z,82.96
2019-02-16T11:34:11.118Z,83.65
2019-02-16T11:36:49.852Z,83.57
2019-02-16T11:39:38.111Z,84.04
2019-02-16T11:42:26.406Z,84.23
2019-02-16T11:45:14.945Z,84.32
2019-02-16T11:48:09.355Z,84.75
2019-02-16T11:50:57.763Z,84.72
2019-02-16T11:53:42.171Z,85.27
2019-02-16T11:56:30.379Z,85.16
2019-02-16T11:59:18.664Z,85.33
2019-02-16T12:02:06.931Z,86.19
2019-02-16T12:04:55.134Z,85.75
2019-02-16T12:07:43.489Z,85.60
2019-02-16T12:10:31.673Z,85.89
2019-02-16T12:16:05.111Z,85.72
2019-02-16T12:18:53.331Z,85.98
2019-02-16T12:21:55.946Z,86.02
2019-02-16T12:24:30.490Z,85.69
2019-02-16T12:27:21.482Z,86.05
2019-02-16T12:30:10.465Z,85.87
2019-02-16T12:32:58.859Z,85.50
2019-02-16T12:35:47.170Z,85.55
2019-02-16T12:38:35.531Z,85.71
2019-02-16T12:41:23.742Z,85.73
2019-02-16T12:44:12.003Z,86.04
2019-02-16T12:47:00.254Z,85.25
2019-02-16T12:49:48.535Z,85.21
2019-02-16T12:52:37.592Z,85.86
2019-02-16T12:55:17.526Z,85.53
2019-02-16T12:58:05.918Z,85.43
2019-02-16T13:00:54.118Z,85.90
2019-02-16T13:03:29.585Z,85.49
2019-02-16T13:06:17.806Z,86.00
2019-02-16T13:08:56.217Z,85.87
2019-02-16T13:11:31.190Z,86.36
2019-02-16T13:14:38.414Z,85.89
2019-02-16T13:17:26.606Z,86.26
2019-02-16T13:20:14.776Z,86.39
2019-02-16T13:22:49.192Z,86.84
2019-02-16T13:25:27.260Z,87.31
2019-02-16T13:28:04.087Z,87.31
2019-02-16T13:30:52.309Z,87.31
2019-02-16T13:33:40.503Z,87.44
2019-02-16T13:36:28.759Z,87.74
2019-02-16T13:39:17.023Z,88.05
2019-02-16T13:42:05.207Z,88.51
2019-02-16T13:44:53.584Z,88.36
2019-02-16T13:47:41.846Z,88.26
2019-02-16T13:50:30.106Z,88.43
2019-02-16T13:53:18.317Z,88.93
2019-02-16T13:56:06.562Z,89.00
2019-02-16T13:58:54.715Z,89.31
2019-02-16T14:01:32.062Z,89.64
2019-02-16T14:07:28.404Z,90.20
2019-02-16T14:10:35.533Z,90.49
2019-02-16T14:13:24.089Z,90.88
2019-02-16T14:16:12.300Z,91.14
2019-02-16T14:18:42.118Z,91.26
2019-02-16T14:21:11.395Z,91.70
2019-02-16T14:23:40.856Z,92.13
2019-02-16T14:26:10.167Z,92.17
2019-02-16T14:28:58.430Z,92.67
2019-02-16T14:31:28.753Z,92.80
2019-02-16T14:33:59.097Z,92.94
2019-02-16T14:36:28.578Z,93.19
2019-02-16T14:39:02.564Z,93.32
2019-02-16T14:44:20.124Z,93.45
2019-02-16T14:49:50.030Z,93.94
2019-02-16T14:52:19.344Z,94.09
2019-02-16T14:54:48.776Z,94.38
2019-02-16T14:57:18.149Z,94.29
2019-02-16T14:59:47.482Z,94.41
2019-02-16T15:02:16.791Z,94.54
2019-02-16T15:04:46.165Z,94.61
2019-02-16T15:07:34.622Z,94.61
2019-02-16T15:10:04.140Z,94.77
2019-02-16T15:12:33.440Z,94.75
2019-02-16T15:15:02.782Z,94.69
2019-02-16T15:17:50.970Z,94.95
2019-02-16T15:20:20.318Z,95.14
2019-02-16T15:22:49.686Z,95.51
2019-02-16T15:25:38.040Z,95.96
2019-02-16T15:28:07.348Z,95.82
2019-02-16T15:30:36.787Z,96.29
2019-02-16T15:33:06.135Z,96.13
2019-02-16T15:35:36.004Z,96.59
2019-02-16T15:38:05.342Z,96.61
2019-02-16T15:40:34.776Z,97.10
2019-02-16T15:43:04.112Z,97.22
2019-02-16T15:45:33.813Z,97.47
2019-02-16T15:48:03.111Z,97.66
2019-02-16T15:50:32.749Z,98.25
2019-02-16T15:53:02.071Z,98.18
2019-02-16T15:55:31.482Z,98.24
2019-02-16T15:58:00.802Z,98.42
2019-02-16T16:00:30.405Z,98.65
2019-02-16T16:02:59.822Z,98.53
2019-02-16T16:05:29.365Z,98.76
2019-02-16T16:08:16.305Z,98.73
2019-02-16T16:11:04.523Z,98.75
2019-02-16T16:13:41.773Z,99.01
2019-02-16T16:16:29.993Z,99.12
2019-02-16T16:19:18.331Z,99.12
2019-02-16T16:22:06.597Z,99.06
2019-02-16T16:24:55.039Z,99.25
2019-02-16T16:27:43.267Z,99.29
2019-02-16T16:30:31.557Z,99.25
2019-02-16T16:33:19.832Z,99.43
2019-02-16T16:36:08.118Z,99.49
2019-02-16T16:38:56.770Z,99.67
2019-02-16T16:41:36.384Z,99.75
2019-02-16T16:44:24.680Z,99.72
2019-02-16T16:47:03.526Z,99.70
2019-02-16T16:49:51.728Z,99.68
2019-02-16T16:52:39.997Z,99.77
2019-02-16T16:55:28.228Z,99.97
2019-02-16T16:58:16.493Z,99.52
2019-02-16T17:01:04.908Z,99.70
2019-02-16T17:03:53.326Z,99.89
2019-02-16T17:06:29.183Z,99.79
2019-02-16T17:09:17.472Z,100.00
2019-02-16T17:12:05.961Z,100.00
2019-02-16T17:14:54.215Z,100.00
2019-02-16T17:17:42.694Z,100.00
2019-02-16T17:20:22.713Z,100.00
2019-02-16T17:23:27.087Z,100.00
2019-02-16T17:26:15.299Z,100.00
2019-02-16T17:29:03.527Z,100.00
2019-02-16T17:31:45.301Z,100.00
2019-02-16T17:34:33.858Z,100.00
2019-02-16T17:37:22.357Z,100.00
2019-02-16T17:40:10.654Z,100.00
2019-02-16T17:42:59.069Z,100.00
2019-02-16T17:46:06.422Z,100.00
2019-02-16T17:49:03.476Z,100.00
2019-02-16T17:51:51.801Z,100.00
2019-02-16T17:54:40.286Z,100.00
2019-02-16T17:57:28.785Z,100.00
2019-02-16T18:00:17.314Z,100.00
2019-02-16T18:02:54.753Z,100.00
2019-02-16T18:05:43.150Z,100.00
2019-02-16T18:08:31.459Z,100.00
2019-02-16T18:11:19.827Z,100.00
2019-02-16T18:14:08.272Z,100.00
2019-02-16T18:16:56.598Z,100.00
2019-02-16T18:19:45.475Z,100.00
2019-02-16T18:22:34.122Z,100.00
2019-02-16T18:25:22.367Z,100.00
2019-02-16T18:28:16.973Z,100.00
2019-02-16T18:31:05.336Z,100.00
2019-02-16T18:33:54.189Z,100.00
2019-02-16T18:36:34.502Z,100.00
2019-02-16T18:42:07.902Z,100.00
2019-02-16T18:44:56.337Z,100.00
2019-02-16T18:47:41.669Z,100.00
2019-02-16T18:50:31.699Z,100.00
2019-02-16T18:53:20.083Z,100.00
2019-02-16T18:56:08.597Z,100.00
2019-02-16T18:58:56.942Z,100.00
2019-02-16T19:01:45.597Z,100.00
2019-02-16T19:04:34.139Z,100.00
2019-02-16T19:07:20.985Z,100.00
2019-02-16T19:10:00.635Z,100.00
2019-02-16T19:12:49.099Z,100.00
2019-02-16T19:15:30.694Z,100.00
2019-02-16T19:18:06.184Z,100.00
2019-02-16T19:24:19.025Z,100.00
2019-02-16T19:27:16.264Z,100.00
2019-02-16T19:30:16.295Z,100.00
2019-02-16T19:33:04.504Z,100.00
2019-02-16T19:35:52.748Z,100.00
2019-02-16T19:38:29.835Z,100.00
2019-02-16T19:41:18.037Z,100.00
2019-02-16T19:44:06.241Z,100.00
2019-02-16T19:49:55.397Z,100.00
2019-02-16T19:52:44.103Z,100.00
2019-02-16T19:55:32.347Z,100.00
2019-02-16T19:58:20.563Z,100.00
2019-02-16T20:01:08.915Z,100.00
2019-02-16T20:03:57.132Z,100.00
2019-02-16T20:06:45.395Z,100.00
2019-02-16T20:09:18.324Z,100.00
2019-02-16T20:12:06.727Z,100.00
2019-02-16T20:14:54.995Z,100.00
2019-02-16T20:17:46.196Z,100.00
2019-02-16T20:20:34.885Z,100.00
2019-02-16T20:23:23.193Z,100.00
2019-02-16T20:26:02.514Z,100.00
2019-02-16T20:28:50.729Z,100.00
2019-02-16T20:31:39.223Z,100.00
2019-02-16T20:34:27.489Z,100.00
2019-02-16T20:37:15.809Z,100.00
2019-02-16T20:40:04.096Z,100.00
2019-02-16T20:45:46.672Z,100.00
2019-02-16T20:48:34.933Z,100.00
2019-02-16T20:51:23.153Z,100.00
2019-02-16T20:54:11.649Z,100.00
2019-02-16T20:56:57.003Z,100.00
2019-02-16T20:59:45.362Z,100.00
2019-02-16T21:02:22.591Z,100.00
2019-02-16T21:05:09.542Z,100.00
2019-02-16T21:07:58.020Z,100.00
2019-02-16T21:10:37.153Z,100.00
2019-02-16T21:13:25.366Z,100.00
2019-02-16T21:16:13.648Z,100.00
2019-02-16T21:19:02.030Z,100.00
2019-02-16T21:21:50.223Z,100.00
2019-02-16T21:24:38.653Z,100.00
2019-02-16T21:27:17.556Z,100.00
2019-02-16T21:30:05.895Z,100.00
2019-02-16T21:32:54.085Z,100.00
2019-02-16T21:35:42.272Z,100.00
2019-02-16T21:38:51.368Z,100.00
2019-02-16T21:41:42.534Z,100.00
2019-02-16T21:44:16.911Z,100.00
2019-02-16T21:46:54.751Z,100.00
2019-02-16T21:49:42.936Z,100.00
2019-02-16T21:52:31.201Z,100.00
2019-02-16T21:55:08.498Z,100.00
2019-02-16T21:57:56.692Z,100.00
2019-02-16T22:00:44.888Z,100.00
2019-02-16T22:03:35.712Z,100.00
2019-02-16T22:06:23.912Z,100.00
2019-02-16T22:09:12.130Z,100.00
2019-02-16T22:11:51.633Z,100.00
2019-02-16T22:14:21.374Z,100.00
2019-02-16T22:16:50.687Z,100.00
2019-02-16T22:19:20.424Z,100.00
2019-02-16T22:21:49.718Z,100.00
2019-02-16T22:24:19.227Z,100.00
2019-02-16T22:26:48.543Z,100.00
2019-02-16T22:29:18.337Z,100.00
2019-02-16T22:31:47.619Z,100.00
2019-02-16T22:34:17.238Z,100.00
2019-02-16T22:36:46.547Z,100.00
2019-02-16T22:39:16.146Z,100.00
2019-02-16T22:44:59.494Z,100.00
2019-02-16T22:47:28.963Z,100.00
2019-02-16T22:49:58.261Z,100.00
2019-02-16T22:52:27.767Z,100.00
2019-02-16T22:54:57.081Z,100.00
2019-02-16T22:57:26.513Z,100.00
2019-02-16T22:59:55.827Z,100.00
2019-02-16T23:02:25.263Z,100.00
2019-02-16T23:04:54.550Z,100.00
2019-02-16T23:07:24.168Z,100.00
2019-02-16T23:09:53.579Z,100.00
2019-02-16T23:12:23.409Z,100.00
2019-02-16T23:14:52.696Z,100.00
2019-02-16T23:17:22.089Z,100.00
2019-02-16T23:19:51.403Z,100.00
2019-02-16T23:22:21.093Z,100.00
2019-02-16T23:24:50.398Z,100.00
2019-02-16T23:27:20.109Z,100.00
2019-02-16T23:29:49.433Z,100.00
2019-02-16T23:32:19.003Z,100.00
2019-02-16T23:34:48.316Z,100.00
2019-02-16T23:37:18.046Z,100.00
2019-02-16T23:39:47.370Z,100.00
2019-02-16T23:42:16.884Z,100.00
2019-02-16T23:45:05.093Z,100.00
2019-02-16T23:47:34.371Z,100.00
2019-02-16T23:50:04.058Z,100.00
2019-02-16T23:52:33.359Z,100.00
2019-02-16T23:55:02.840Z,100.00
2019-02-16T23:57:32.174Z,100.00
